Terminal Aerodrome Forecast
Issued by NWS Charleston, WV

Current Version | Previous Version | Text Only | Print | Product List | Glossary Off
Versions: 1 2 3 4 5 6 7 8 9 10 11 12 13 14 15 16 17 18 19 20 21 22 23 24

000
FTUS41 KRLX 160852 AAA
TAFCRW
TAF AMD
KCRW 160852Z 1609/1706 24005KT 6SM -SN OVC045
      TEMPO 1610/1612 4SM -SN OVC025
     FM161200 25004KT 4SM -SN OVC015
      TEMPO 1612/1614 2SM -SN OVC008
     FM161400 27004KT 2SM -SN OVC008
      TEMPO 1614/1615 3/4SM -SN OVC003
     FM161500 27005KT 3/4SM -SN OVC005
     FM162100 29005KT 3SM -SN OVC015
     FM170000 30005KT P6SM BKN025=

USA.gov is the U.S. government's official web portal to all federal, state and local government web resources and services.